Amsterdam, New York
Current Conditions -  °F | °C
As of 4:55 AM on Saturday 01 Nov 2014 (Local Time) from KNY0 Reporting Station
Overcast Overcast  
Wind Chill: 35°   Ceiling: 5000
Heat Index: 40°   Visibility: 10mi
Dew Point: 31°   Wind: 7mph
Humidity: 71%   Direction: 40°NE
Pressure: 29.95"   Gusts: NA
Location:  42.94°N, 74.19°W
Report Text: KNY0 010855Z AUTO 04006KT 10SM OVC050 04/M01 A2995 RMK AO2 T00421006
Loading
Personal Weather Stations






























Interactive Weather Map
Tropical Storm Tracking
New forecast layout! Learn more

10-Day Weather Forecast

Advertisements
Track Severe Weather on mobile